Flight Track Log - Related Links

Times and Time Zones

All times are in EDT time to prevent confusion due to time zone crossing. See the MPE1546 flight status page for this flight to view local times or setup timezone preferences in your user account.

Time Position Orientation Groundspeed Altitude Reporting Facility
EDT Latitude Longitude Course Direction KTS MPH feet Rate Location/Type
Fri 05:57:33 AM 46.1000 -64.7167 267° West 150 173 1,400  Level Moncton Center
Fri 05:58:33 AM 46.1000 -64.7833 270° West 190 219 3,300 2,250 Climbing Moncton Center
Fri 05:59:33 AM 46.1000 -64.8833 270° West 220 253 5,900 2,450 Climbing Moncton Center
Fri 06:00:33 AM 46.1000 -64.9833 270° West 260 299 8,200 2,450 Climbing Moncton Center
Fri 06:01:33 AM 46.0833 -65.1000 258° West 280 322 10,800 2,450 Climbing Moncton Center
Fri 06:02:00 AM 46.1507 -65.2391 265° West  Level FlightAware Approximate
Fri 06:02:33 AM 46.0833 -65.2333 270° West 320 368 13,100  Level Moncton Center
Fri 06:03:00 AM 46.1475 -65.3776 267° West  Level FlightAware Approximate
Fri 06:03:33 AM 46.0833 -65.3667 270° West 340 391 16,400  Level Moncton Center
Fri 06:04:33 AM 46.0833 -65.5000 270° West 350 403 19,500 3,100 Climbing Moncton Center
Fri 06:05:33 AM 46.0833 -65.6500 270° West 350 403 22,600 2,600 Climbing Moncton Center
Fri 06:06:33 AM 46.0833 -65.8000 270° West 360 414 24,700 2,000 Climbing Moncton Center
Fri 06:07:33 AM 46.0833 -65.9333 270° West 380 437 26,600 1,950 Climbing Moncton Center
Fri 06:08:33 AM 46.0833 -66.1167 270° West 380 437 28,600 2,050 Climbing Moncton Center
Fri 06:09:33 AM 46.0833 -66.2500 270° West 390 449 30,700 2,300 Climbing Moncton Center
Fri 06:10:33 AM 46.0833 -66.4000 270° West 380 437 33,200 2,350 Climbing Moncton Center
Fri 06:11:33 AM 46.0667 -66.5500 261° West 350 403 35,400 1,400 Climbing Moncton Center
Fri 06:12:33 AM 46.0667 -66.6833 270° West 350 403 36,000 300 Climbing Moncton Center
Fri 06:13:33 AM 46.0500 -66.8333 261° West 350 403 36,000  Level Moncton Center
Fri 06:14:33 AM 46.0500 -66.9833 270° West 350 403 36,000  Level Moncton Center
Fri 06:15:33 AM 46.0500 -67.1167 270° West 350 403 36,000  Level Moncton Center
Fri 06:16:33 AM 46.0333 -67.2500 260° West 350 403 36,000  Level Moncton Center
Fri 06:17:33 AM 46.0333 -67.4167 270° West 350 403 36,000  Level Moncton Center
Fri 06:18:33 AM 46.0333 -67.5333 270° West 350 403 36,000  Level Moncton Center
Fri 06:19:33 AM 46.0333 -67.6833 270° West 350 403 36,000  Level Moncton Center
Fri 06:20:33 AM 46.0167 -67.8167 260° West 360 414 36,000  Level Moncton Center
Fri 06:21:14 AM 46.0358 -67.9181 285° West 356 410 36,000  Level Boston Center
Fri 06:22:15 AM 46.0333 -68.0556 269° West 358 412 36,000  Level Boston Center
Fri 06:23:16 AM 46.0286 -68.1997 267° West 358 412 36,000  Level Boston Center
Fri 06:24:18 AM 46.0247 -68.3467 268° West 361 415 36,000  Level Boston Center
Fri 06:25:19 AM 46.0208 -68.4936 268° West 365 420 36,000  Level Boston Center
Fri 06:26:19 AM 46.0158 -68.6408 267° West 365 420 36,000  Level Boston Center
Fri 06:27:19 AM 46.0114 -68.7889 268° West 366 421 36,000  Level Boston Center
Fri 06:28:20 AM 46.0058 -68.9378 267° West 369 425 36,000  Level Boston Center
Fri 06:29:21 AM 46.0017 -69.0858 268° West 369 425 36,000  Level Boston Center
Fri 06:30:22 AM 45.9967 -69.2356 267° West 370 426 36,000  Level Boston Center
Fri 06:31:23 AM 45.9900 -69.3817 266° West 370 426 36,000 -48 Level Boston Center
Fri 06:32:26 AM 45.9844 -69.5300 267° West 370 426 35,900  Descending Boston Center
Fri 06:33:27 AM 45.9767 -69.7053 266° West 369 425 36,000 49 Climbing Boston Center
Fri 06:34:28 AM 45.9714 -69.8544 267° West 370 426 36,000  Level Boston Center
Fri 06:35:29 AM 45.9644 -70.0039 266° West 373 429 36,000  Level Boston Center
Fri 06:36:30 AM 45.9572 -70.1544 266° West 375 432 36,000  Level Boston Center
Fri 06:37:33 AM 45.9333 -70.3500 260° West 380 437 36,000  Level Moncton Center
Fri 06:38:33 AM 45.9333 -70.4833 270° West 380 437 36,000  Level Moncton Center
Fri 06:39:33 AM 45.9167 -70.6333 261° West 390 449 36,000  Level Moncton Center
Fri 06:40:33 AM 45.9167 -70.8000 270° West 390 449 36,000  Level Moncton Center
Fri 06:41:33 AM 45.9000 -70.9667 262° West 390 449 36,000 -50 Level Moncton Center
Fri 06:42:33 AM 45.9000 -71.1167 270° West 390 449 35,900 -550 Descending Moncton Center
Fri 06:43:33 AM 45.8667 -71.2500 250° West 390 449 34,900 -950 Descending Moncton Center
Fri 06:44:33 AM 45.8500 -71.4167 262° West 400 460 34,000 -950 Descending Moncton Center
Fri 06:45:33 AM 45.8500 -71.5833 270° West 400 460 33,000 -1,500 Descending Moncton Center
Fri 06:46:33 AM 45.8333 -71.7500 262° West 400 460 31,000 -2,100 Descending Moncton Center
Fri 06:47:33 AM 45.8167 -71.9000 261° West 380 437 28,800 -2,200 Descending Moncton Center
Fri 06:48:33 AM 45.8000 -72.0333 260° West 370 426 26,600 -2,300 Descending Moncton Center
Fri 06:49:33 AM 45.7833 -72.1833 261° West 360 414 24,200 -2,250 Descending Moncton Center
Fri 06:50:33 AM 45.7833 -72.3167 270° West 350 403 22,100 -2,200 Descending Moncton Center
Fri 06:51:33 AM 45.7667 -72.4667 261° West 340 391 19,800 -2,150 Descending Moncton Center
Fri 06:52:33 AM 45.7500 -72.5833 258° West 330 380 17,800 -2,100 Descending Moncton Center
Fri 06:53:33 AM 45.7333 -72.7000 258° West 320 368 15,600 -2,050 Descending Moncton Center
Fri 06:54:33 AM 45.7333 -72.8167 270° West 310 357 13,700 -2,000 Descending Moncton Center
Fri 06:55:33 AM 45.7167 -72.9667 261° West 300 345 11,600 -1,800 Descending Moncton Center
Fri 06:56:33 AM 45.7000 -73.0500 254° West 300 345 10,100 -1,150 Descending Moncton Center
Fri 06:57:33 AM 45.6833 -73.1667 258° West 270 311 9,300 -1,100 Descending Moncton Center
Fri 06:58:33 AM 45.6667 -73.2667 257° West 250 288 7,900 -1,350 Descending Moncton Center
Fri 06:59:33 AM 45.6500 -73.3667 257° West 240 276 6,600 -1,100 Descending Moncton Center
Fri 07:00:33 AM 45.6500 -73.4333 270° West 220 253 5,700 -800 Descending Moncton Center
Fri 07:01:33 AM 45.6333 -73.5000 250° West 200 230 5,000 -1,083 Descending Moncton Center
Fri 07:02:57 AM 45.5833 -73.5500 215° Southwest 210 242 3,100 -1,167 Descending Montreal Center
Fri 07:03:57 AM 45.5500 -73.6000 226° Southwest 170 196 2,200 -900 Descending Montreal Center
Fri 07:04:57 AM 45.5167 -73.6500 226° Southwest 170 196 1,300 -800 Descending Montreal Center
Fri 07:05:57 AM 45.4833 -73.6667 199° South 130 150 600 -600 Descending Montreal Center
Fri 07:06:57 AM 45.4500 -73.7167 226° Southwest 120 138 100 -500 Descending Montreal Center

Login

Don't have an account? Register now (free) for customized features, flight alerts, and more!